Porosity — WDF7776 — position and weather

sailwx.info

Track history (hours):
 
Tides and Currents Weather Stations Pressure Air Temp Water Temp Dewpoint Dewpoint Depression Visibility Wind Speed Wind Dir Waves Ship Positions

Porosity

Owner: Bahlburg, Bill, plano, TX. More information available from US FCC via Universal Licensing System and Coast Guard Vessel Documentation Center.

Last reported at 2016-Sep-21 19:33 UTC. Time now 2016-Sep-27 12:14 UTC.
Position N 48°31' W 123°17'.

Length 19 m.

Type: Pleasure craft. MMSI: 367488010.

Date/timePositionNaut miles runAvg speedWind from/ knotsBaromVisibWave heightAir tempDewpointWater temp
2016-Sep-21 19:33N 48°31' W 123°17'5 0.1
2016-Sep-19 19:33N 48°26' W 123°17'12 3.4
2016-Sep-19 16:06N 48°36' W 123°10'0 0.0
2016-Sep-19 14:33N 48°36' W 123°10'0 0.0
2016-Sep-19 11:18N 48°36' W 123°10'5 0.2
2016-Sep-18 10:18N 48°37' W 123°03'0 0.0
2016-Sep-18 09:21N 48°37' W 123°03'0 0.0
2016-Sep-18 01:06N 48°37' W 123°03'0 0.0
2016-Sep-17 22:30N 48°37' W 123°03'3 0.8
2016-Sep-17 18:40N 48°34' W 123°01'2 0.2
2016-Sep-17 05:05N 48°32' W 123°00'0 0.0
2016-Sep-17 04:33N 48°32' W 123°00'0 0.0
2016-Sep-17 00:32N 48°32' W 123°00'0 0.0
2016-Sep-16 17:32N 48°32' W 123°00'0 0.0
2016-Sep-16 15:32N 48°32' W 123°00'0 0.0
2016-Sep-16 12:29N 48°32' W 123°00'0 0.0
2016-Sep-16 09:29N 48°32' W 123°00'0 0.0
2016-Sep-16 07:29N 48°32' W 123°00'0 0.0
2016-Sep-16 03:17N 48°32' W 123°00'0 0.0
2016-Sep-16 00:17N 48°32' W 123°00'5 2.7
2016-Sep-15 22:33N 48°28' W 122°57'13 9.3
2016-Sep-15 21:11N 48°15' W 122°52'  
Track history (hours):
 
Tides and Currents Weather Stations Pressure Air Temp Water Temp Dewpoint Dewpoint Depression Visibility Wind Speed Wind Dir Waves Ship Positions

Porosity

Owner: Bahlburg, Bill, plano, TX. More information available from US FCC via Universal Licensing System and Coast Guard Vessel Documentation Center.

Last reported at 2016-Sep-21 19:33 UTC. Time now 2016-Sep-27 12:14 UTC.
Position N 48°31' W 123°17'.

Length 19 m.

Type: Pleasure craft. MMSI: 367488010.

Date/timePositionNaut miles runAvg speedWind from/ knotsBaromVisibWave heightAir tempDewpointWater temp
2016-Sep-21 19:33N 48°31' W 123°17'5 0.1
2016-Sep-19 19:33N 48°26' W 123°17'12 3.4
2016-Sep-19 16:06N 48°36' W 123°10'0 0.0
2016-Sep-19 14:33N 48°36' W 123°10'0 0.0
2016-Sep-19 11:18N 48°36' W 123°10'5 0.2
2016-Sep-18 10:18N 48°37' W 123°03'0 0.0
2016-Sep-18 09:21N 48°37' W 123°03'0 0.0
2016-Sep-18 01:06N 48°37' W 123°03'0 0.0
2016-Sep-17 22:30N 48°37' W 123°03'3 0.8
2016-Sep-17 18:40N 48°34' W 123°01'2 0.2
2016-Sep-17 05:05N 48°32' W 123°00'0 0.0
2016-Sep-17 04:33N 48°32' W 123°00'0 0.0
2016-Sep-17 00:32N 48°32' W 123°00'0 0.0
2016-Sep-16 17:32N 48°32' W 123°00'0 0.0
2016-Sep-16 15:32N 48°32' W 123°00'0 0.0
2016-Sep-16 12:29N 48°32' W 123°00'0 0.0
2016-Sep-16 09:29N 48°32' W 123°00'0 0.0
2016-Sep-16 07:29N 48°32' W 123°00'0 0.0
2016-Sep-16 03:17N 48°32' W 123°00'0 0.0
2016-Sep-16 00:17N 48°32' W 123°00'5 2.7
2016-Sep-15 22:33N 48°28' W 122°57'13 9.3
2016-Sep-15 21:11N 48°15' W 122°52'  

Dump ship's entire track history